Victory City, Texas
Current Conditions -  °F | °C
As of 8:53 PM on Thursday 27 Nov 2014 (Local Time) from KTXK Reporting Station
Clear Clear  
Wind Chill: 38°   Ceiling: Unl
Heat Index: 41°   Visibility: 10mi
Dew Point: 31°   Wind: 5mph
Humidity: 67%   Direction: 100°E
Pressure: 30.44"   Gusts: NA
Location:  33.474°N, 94.2882°W
Report Text: KTXK 280253Z 10004KT 10SM CLR 05/M01 A3044 RMK AO2 SLP309 T00501006 56002
Loading
Personal Weather Stations






























Interactive Weather Map New forecast layout! Learn more

10-Day Weather Forecast

Advertisements
Track Severe Weather on mobile